createdAt,value
2023-02-21T02:24:08.031Z,8.18
2023-02-21T02:27:38.044Z,8.50
2023-02-21T02:30:37.404Z,8.50
2023-02-21T02:33:39.189Z,8.50
2023-02-21T02:36:24.592Z,8.40
2023-02-21T02:39:18.995Z,8.38
2023-02-21T02:42:00.730Z,8.30
2023-02-21T02:44:42.557Z,8.20
2023-02-21T02:47:24.629Z,8.20
2023-02-21T02:49:53.266Z,8.20
2023-02-21T02:52:19.698Z,8.20
2023-02-21T02:54:58.337Z,8.20
2023-02-21T02:57:25.143Z,8.20
2023-02-21T02:59:51.871Z,8.20
2023-02-21T03:02:39.583Z,8.20
2023-02-21T03:05:20.481Z,8.20
2023-02-21T03:08:19.807Z,8.20
2023-02-21T03:11:04.449Z,8.20
2023-02-21T03:13:37.435Z,8.20
2023-02-21T03:16:39.316Z,8.20
2023-02-21T03:19:13.769Z,8.30
2023-02-21T03:21:50.814Z,8.30
2023-02-21T03:24:20.407Z,8.30
2023-02-21T03:26:51.856Z,8.30
2023-02-21T03:29:20.791Z,8.30
2023-02-21T03:32:10.671Z,8.30
2023-02-21T03:34:42.618Z,8.30
2023-02-21T03:37:37.203Z,8.30
2023-02-21T03:40:10.578Z,8.30
2023-02-21T03:42:37.015Z,8.32
2023-02-21T03:45:03.731Z,8.30
2023-02-21T03:47:30.308Z,8.28
2023-02-21T03:49:56.683Z,8.20
2023-02-21T03:52:23.174Z,8.20
2023-02-21T03:54:49.714Z,8.10
2023-02-21T03:57:16.624Z,8.10
2023-02-21T03:59:43.273Z,8.10
2023-02-21T04:02:09.867Z,8.10
2023-02-21T04:04:36.527Z,8.10
2023-02-21T04:07:03.033Z,8.10
2023-02-21T04:09:29.462Z,8.10
2023-02-21T04:11:55.880Z,8.10
2023-02-21T04:14:22.347Z,8.10
2023-02-21T04:16:49.138Z,8.10
2023-02-21T04:19:15.601Z,8.10
2023-02-21T04:21:42.063Z,8.10
2023-02-21T04:24:08.670Z,8.12
2023-02-21T04:26:35.333Z,8.20
2023-02-21T04:29:02.832Z,8.20
2023-02-21T04:31:29.365Z,8.20
2023-02-21T04:34:10.556Z,8.20
2023-02-21T04:36:38.657Z,8.22
2023-02-21T04:39:06.728Z,8.26
2023-02-21T04:41:34.118Z,8.22
2023-02-21T04:44:00.608Z,8.20
2023-02-21T04:46:27.099Z,8.20
2023-02-21T04:48:53.862Z,8.12
2023-02-21T04:51:25.333Z,8.10
2023-02-21T04:53:54.451Z,8.00
2023-02-21T04:56:25.114Z,7.90
2023-02-21T04:58:51.806Z,7.76
2023-02-21T05:01:20.654Z,7.68
2023-02-21T05:03:47.808Z,7.60
2023-02-21T05:06:23.350Z,7.60
2023-02-21T05:08:49.863Z,7.54
2023-02-21T05:11:19.006Z,7.52
2023-02-21T05:13:46.783Z,7.50
2023-02-21T05:16:14.151Z,7.50
2023-02-21T05:18:45.843Z,7.50
2023-02-21T05:21:13.245Z,7.50
2023-02-21T05:23:41.130Z,7.50
2023-02-21T05:26:13.007Z,7.50
2023-02-21T05:28:41.192Z,7.50
2023-02-21T05:31:08.336Z,7.50
2023-02-21T05:33:35.002Z,7.50
2023-02-21T05:36:02.162Z,7.58
2023-02-21T05:38:28.646Z,7.52
2023-02-21T05:40:55.114Z,7.54
2023-02-21T05:43:21.972Z,7.56
2023-02-21T05:45:48.748Z,7.56
2023-02-21T05:48:15.293Z,7.60
2023-02-21T05:50:41.746Z,7.60
2023-02-21T05:53:10.329Z,7.60
2023-02-21T05:55:37.671Z,7.60
2023-02-21T05:58:04.390Z,7.50
2023-02-21T06:00:31.975Z,7.50
2023-02-21T06:02:58.700Z,7.50
2023-02-21T06:05:25.587Z,7.50
2023-02-21T06:07:52.545Z,7.50
2023-02-21T06:10:20.000Z,7.50
2023-02-21T06:12:46.935Z,7.48
2023-02-21T06:15:14.116Z,7.40
2023-02-21T06:17:42.097Z,7.40
2023-02-21T06:20:15.110Z,7.40
2023-02-21T06:22:41.579Z,7.40
2023-02-21T06:25:08.708Z,7.30
2023-02-21T06:27:35.285Z,7.30
2023-02-21T06:30:05.229Z,7.30
2023-02-21T06:32:31.816Z,7.38
2023-02-21T06:34:58.288Z,7.40
2023-02-21T06:37:24.904Z,7.40
2023-02-21T06:39:51.322Z,7.40
2023-02-21T06:42:18.354Z,7.40
2023-02-21T06:44:49.644Z,7.40
2023-02-21T06:47:17.690Z,7.40
2023-02-21T06:49:44.637Z,7.40
2023-02-21T06:52:11.394Z,7.34
2023-02-21T06:54:38.221Z,7.32
2023-02-21T06:57:05.755Z,7.30
2023-02-21T06:59:32.694Z,7.30
2023-02-21T07:01:59.144Z,7.20
2023-02-21T07:04:26.061Z,7.28
2023-02-21T07:06:52.582Z,7.30
2023-02-21T07:09:19.118Z,7.30
2023-02-21T07:11:47.015Z,7.30
2023-02-21T07:14:14.412Z,7.40
2023-02-21T07:16:40.904Z,7.40
2023-02-21T07:19:07.378Z,7.50
2023-02-21T07:21:33.951Z,7.56
2023-02-21T07:24:00.621Z,7.60
2023-02-21T07:26:27.143Z,7.60
2023-02-21T07:28:53.740Z,7.60
2023-02-21T07:31:20.790Z,7.60
2023-02-21T07:33:47.626Z,7.60
2023-02-21T07:36:14.231Z,7.58
2023-02-21T07:38:40.744Z,7.54
2023-02-21T07:41:07.216Z,7.56
2023-02-21T07:43:33.693Z,7.60
2023-02-21T07:46:01.787Z,7.60
2023-02-21T07:48:28.727Z,7.60
2023-02-21T07:50:55.720Z,7.60
2023-02-21T07:53:22.111Z,7.60
2023-02-21T07:55:48.741Z,7.60
2023-02-21T07:58:15.617Z,7.70
2023-02-21T08:00:42.873Z,7.70
2023-02-21T08:03:13.320Z,7.80
2023-02-21T08:05:40.275Z,7.90
2023-02-21T08:08:09.197Z,7.90
2023-02-21T08:10:36.494Z,7.90
2023-02-21T08:13:04.604Z,7.98
2023-02-21T08:15:31.287Z,7.90
2023-02-21T08:17:57.708Z,8.00
2023-02-21T08:20:24.075Z,8.06
2023-02-21T08:22:50.509Z,8.10
2023-02-21T08:25:17.394Z,8.10
2023-02-21T08:27:45.366Z,8.20
2023-02-21T08:30:15.072Z,8.30
2023-02-21T08:32:41.665Z,8.40
2023-02-21T08:35:08.501Z,8.50
2023-02-21T08:37:36.442Z,8.50
2023-02-21T08:40:06.432Z,8.50
2023-02-21T08:42:32.788Z,8.40
2023-02-21T08:44:59.236Z,8.40
2023-02-21T08:47:25.608Z,8.32
2023-02-21T08:49:52.050Z,8.32
2023-02-21T08:52:21.672Z,8.40
2023-02-21T08:54:48.697Z,8.40
2023-02-21T08:57:15.781Z,8.50
2023-02-21T08:59:45.217Z,8.50
2023-02-21T09:02:22.049Z,8.40
2023-02-21T09:04:49.889Z,8.40
2023-02-21T09:07:19.492Z,8.30
2023-02-21T09:09:46.875Z,8.34
2023-02-21T09:12:13.695Z,8.30
2023-02-21T09:14:42.574Z,8.40
2023-02-21T09:17:13.871Z,8.40
2023-02-21T09:19:40.995Z,8.40
2023-02-21T09:22:09.496Z,8.30
2023-02-21T09:24:36.328Z,8.30
2023-02-21T09:27:03.659Z,8.30
2023-02-21T09:29:45.853Z,8.40
2023-02-21T09:32:13.533Z,8.50
2023-02-21T09:34:40.145Z,8.54
2023-02-21T09:37:06.750Z,8.60
2023-02-21T09:39:33.243Z,8.62
2023-02-21T09:42:00.427Z,8.66
2023-02-21T09:44:29.448Z,8.60
2023-02-21T09:47:05.371Z,8.60
2023-02-21T09:49:38.834Z,8.62
2023-02-21T09:52:07.864Z,8.70
2023-02-21T09:54:40.793Z,8.80
2023-02-21T09:57:14.947Z,8.80
2023-02-21T09:59:41.696Z,8.80
2023-02-21T10:02:11.210Z,8.80
2023-02-21T10:05:11.983Z,8.80
2023-02-21T10:08:06.100Z,8.86
2023-02-21T10:10:45.447Z,8.90
2023-02-21T10:13:34.371Z,9.00
2023-02-21T10:16:42.785Z,9.00
2023-02-21T10:19:15.049Z,9.10
2023-02-21T10:21:46.540Z,9.12
2023-02-21T10:24:18.905Z,9.12
2023-02-21T10:26:59.749Z,9.10
2023-02-21T10:29:41.315Z,9.10
2023-02-21T10:32:09.048Z,9.18
2023-02-21T10:34:35.836Z,9.18
2023-02-21T10:37:17.380Z,9.20
2023-02-21T10:39:51.135Z,9.20
2023-02-21T10:42:51.869Z,9.20
2023-02-21T10:45:19.698Z,9.20
2023-02-21T10:48:09.341Z,9.28
2023-02-21T10:51:04.072Z,9.30
2023-02-21T10:53:35.713Z,9.30
2023-02-21T10:56:20.231Z,9.30
2023-02-21T10:59:06.430Z,9.20
2023-02-21T11:01:44.204Z,9.20
2023-02-21T11:04:20.884Z,9.30
2023-02-21T11:06:54.675Z,9.30
2023-02-21T11:09:26.992Z,9.30
2023-02-21T11:12:25.382Z,9.30
2023-02-21T11:15:12.060Z,9.30
2023-02-21T11:17:42.347Z,9.20
2023-02-21T11:20:17.753Z,9.20
2023-02-21T11:22:47.547Z,9.10
2023-02-21T11:25:31.938Z,9.10
2023-02-21T11:28:10.499Z,9.10
2023-02-21T11:30:44.207Z,9.10
2023-02-21T11:33:10.753Z,9.10
2023-02-21T11:35:49.644Z,9.00
2023-02-21T11:38:43.529Z,8.90
2023-02-21T11:41:47.707Z,8.84
2023-02-21T11:44:36.376Z,8.80
2023-02-21T11:47:28.139Z,8.70
2023-02-21T11:50:15.267Z,8.60
2023-02-21T11:53:01.296Z,8.60
2023-02-21T11:55:28.321Z,8.70
2023-02-21T11:58:16.930Z,8.70
2023-02-21T12:01:55.937Z,8.70
2023-02-21T12:04:32.894Z,8.70
2023-02-21T12:07:22.922Z,8.62
2023-02-21T12:10:32.544Z,8.60
2023-02-21T12:13:34.961Z,8.62
2023-02-21T12:16:34.482Z,8.70
2023-02-21T12:19:34.079Z,8.80
2023-02-21T12:22:52.777Z,8.80
2023-02-21T12:26:22.318Z,8.90
2023-02-21T12:29:32.197Z,8.80
2023-02-21T12:32:39.147Z,8.80
2023-02-21T12:36:02.397Z,8.90
2023-02-21T12:38:42.044Z,9.00
2023-02-21T12:41:56.932Z,9.00
2023-02-21T12:45:12.679Z,9.00
2023-02-21T12:47:56.569Z,9.00
2023-02-21T12:50:33.261Z,9.00
2023-02-21T12:53:07.630Z,9.10
2023-02-21T12:55:45.154Z,9.10
2023-02-21T12:58:25.030Z,9.20
2023-02-21T13:01:08.121Z,9.20
2023-02-21T13:04:10.873Z,9.18
2023-02-21T13:06:53.560Z,9.20
2023-02-21T13:09:43.221Z,9.20
2023-02-21T13:12:31.583Z,9.30
2023-02-21T13:15:14.347Z,9.28
2023-02-21T13:17:43.509Z,9.20
2023-02-21T13:20:19.515Z,9.10
2023-02-21T13:22:49.524Z,9.04
2023-02-21T13:25:46.740Z,9.00
2023-02-21T13:28:21.008Z,8.80
2023-02-21T13:31:22.702Z,8.72
2023-02-21T13:33:55.337Z,8.70
2023-02-21T13:36:43.748Z,8.70
2023-02-21T13:39:21.767Z,8.70
2023-02-21T13:42:06.920Z,8.70
2023-02-21T13:44:40.107Z,8.70
2023-02-21T13:47:14.054Z,8.62
2023-02-21T13:49:51.553Z,8.60
2023-02-21T13:52:22.542Z,8.50
2023-02-21T13:55:20.495Z,8.56
2023-02-21T13:58:00.342Z,8.50
2023-02-21T14:00:30.016Z,8.50
2023-02-21T14:03:14.159Z,8.40
2023-02-21T14:05:46.727Z,8.40
2023-02-21T14:08:42.864Z,8.30
2023-02-21T14:11:13.362Z,8.30
2023-02-21T14:13:49.631Z,8.20
2023-02-21T14:16:48.284Z,8.20
2023-02-21T14:19:35.856Z,8.20
2023-02-21T14:22:12.148Z,8.20
2023-02-21T14:24:45.001Z,8.20
2023-02-21T14:27:12.532Z,8.16
2023-02-21T14:29:43.608Z,8.02
2023-02-21T14:32:10.149Z,7.90
2023-02-21T14:34:54.581Z,7.90
2023-02-21T14:37:45.335Z,7.80
2023-02-21T14:40:14.518Z,7.80
2023-02-21T14:43:02.334Z,7.80
2023-02-21T14:46:40.865Z,7.72
2023-02-21T14:49:27.807Z,7.70
2023-02-21T14:52:35.542Z,7.66
2023-02-21T14:55:25.984Z,7.60
2023-02-21T14:58:33.974Z,7.60
2023-02-21T15:01:11.172Z,7.60
2023-02-21T15:03:49.009Z,7.60
2023-02-21T15:06:22.988Z,7.60
2023-02-21T15:08:52.484Z,7.70
2023-02-21T15:11:40.829Z,7.68
2023-02-21T15:14:25.045Z,7.60
2023-02-21T15:17:11.931Z,7.70
2023-02-21T15:19:39.137Z,7.62
2023-02-21T15:22:27.430Z,7.70
2023-02-21T15:25:13.739Z,7.58
2023-02-21T15:27:51.016Z,7.52
2023-02-21T15:30:32.979Z,7.50
2023-02-21T15:33:05.520Z,7.40
2023-02-21T15:35:38.916Z,7.40
2023-02-21T15:38:15.382Z,7.30
2023-02-21T15:40:42.794Z,7.30
2023-02-21T15:43:35.305Z,7.40
2023-02-21T15:46:07.276Z,7.40
2023-02-21T15:48:35.019Z,7.40
2023-02-21T15:51:06.960Z,7.40
2023-02-21T15:53:33.651Z,7.40
2023-02-21T15:56:22.212Z,7.40
2023-02-21T15:59:11.723Z,7.30
2023-02-21T16:01:40.036Z,7.32
2023-02-21T16:04:19.464Z,7.30
2023-02-21T16:06:48.836Z,7.28
2023-02-21T16:09:15.298Z,7.20
2023-02-21T16:11:47.612Z,7.20
2023-02-21T16:14:26.880Z,7.10
2023-02-21T16:17:09.194Z,7.16
2023-02-21T16:19:36.964Z,7.20
2023-02-21T16:22:22.824Z,7.20
2023-02-21T16:24:50.015Z,7.20
2023-02-21T16:27:18.663Z,7.20
2023-02-21T16:29:45.080Z,7.20
2023-02-21T16:32:21.350Z,7.10
2023-02-21T16:34:54.748Z,7.10
2023-02-21T16:37:23.049Z,7.10
2023-02-21T16:39:49.823Z,7.10
2023-02-21T16:42:16.668Z,7.00
2023-02-21T16:44:43.663Z,7.00
2023-02-21T16:47:15.713Z,7.00
2023-02-21T16:49:43.577Z,7.00
2023-02-21T16:52:15.138Z,7.00
2023-02-21T16:54:41.823Z,7.08
2023-02-21T16:57:10.018Z,7.10
2023-02-21T16:59:37.639Z,7.00
2023-02-21T17:02:05.183Z,7.00
2023-02-21T17:04:31.715Z,7.00
2023-02-21T17:07:04.449Z,7.00
2023-02-21T17:09:39.013Z,7.00
2023-02-21T17:12:07.241Z,7.00
2023-02-21T17:14:34.538Z,7.00
2023-02-21T17:17:00.940Z,7.00
2023-02-21T17:19:27.394Z,7.00
2023-02-21T17:21:54.745Z,6.90
2023-02-21T17:24:21.193Z,6.90
2023-02-21T17:26:47.580Z,6.86
2023-02-21T17:29:14.032Z,6.80
2023-02-21T17:31:40.523Z,6.80
2023-02-21T17:34:07.021Z,6.70
2023-02-21T17:36:33.506Z,6.80
2023-02-21T17:39:00.003Z,6.76
2023-02-21T17:41:27.580Z,6.70
2023-02-21T17:43:54.265Z,6.60
2023-02-21T17:46:21.069Z,6.70
2023-02-21T17:48:48.336Z,6.70
2023-02-21T17:51:24.863Z,6.60
2023-02-21T17:53:51.660Z,6.70
2023-02-21T17:56:24.613Z,6.70
2023-02-21T17:58:51.679Z,6.70
2023-02-21T18:01:20.314Z,6.70
2023-02-21T18:03:48.068Z,6.70
2023-02-21T18:06:15.915Z,6.70
2023-02-21T18:08:45.744Z,6.70
2023-02-21T18:11:15.315Z,6.70
2023-02-21T18:13:42.794Z,6.70
2023-02-21T18:16:09.703Z,6.60
2023-02-21T18:18:36.498Z,6.50
2023-02-21T18:21:03.676Z,6.50
2023-02-21T18:23:31.812Z,6.50
2023-02-21T18:25:58.806Z,6.58
2023-02-21T18:28:26.496Z,6.60
2023-02-21T18:30:53.893Z,6.50
2023-02-21T18:33:24.233Z,6.54
2023-02-21T18:35:50.842Z,6.50
2023-02-21T18:38:17.303Z,6.50
2023-02-21T18:40:47.461Z,6.50
2023-02-21T18:43:34.465Z,6.48
2023-02-21T18:46:00.840Z,6.56
2023-02-21T18:48:27.754Z,6.56
2023-02-21T18:50:54.565Z,6.60
2023-02-21T18:53:22.438Z,6.60
2023-02-21T18:55:48.863Z,6.68
2023-02-21T18:58:15.262Z,6.70
2023-02-21T19:00:41.975Z,6.70
2023-02-21T19:03:09.526Z,6.60
2023-02-21T19:05:36.044Z,6.70
2023-02-21T19:08:02.828Z,6.70
2023-02-21T19:10:30.402Z,6.70
2023-02-21T19:13:02.085Z,6.62
2023-02-21T19:15:33.011Z,6.60
2023-02-21T19:18:00.018Z,6.66
2023-02-21T19:20:26.976Z,6.70
2023-02-21T19:22:55.530Z,6.70
2023-02-21T19:25:27.041Z,6.70
2023-02-21T19:28:00.392Z,6.70
2023-02-21T19:30:34.432Z,6.60
2023-02-21T19:33:06.429Z,6.56
2023-02-21T19:35:35.599Z,6.50
2023-02-21T19:38:06.395Z,6.40
2023-02-21T19:40:34.334Z,6.40
2023-02-21T19:43:01.646Z,6.50
2023-02-21T19:45:28.610Z,6.42
2023-02-21T19:47:55.113Z,6.40
2023-02-21T19:50:21.483Z,6.40
2023-02-21T19:52:57.192Z,6.40
2023-02-21T19:55:24.883Z,6.40
2023-02-21T19:57:51.585Z,6.40
2023-02-21T20:00:18.462Z,6.42
2023-02-21T20:02:46.310Z,6.50
2023-02-21T20:05:15.632Z,6.50
2023-02-21T20:07:43.324Z,6.40
2023-02-21T20:10:12.568Z,6.30
2023-02-21T20:12:39.071Z,6.30
2023-02-21T20:15:07.385Z,6.30
2023-02-21T20:17:37.715Z,6.30
2023-02-21T20:20:07.061Z,6.40
2023-02-21T20:22:33.922Z,6.40
2023-02-21T20:25:01.651Z,6.40
2023-02-21T20:27:28.470Z,6.40
2023-02-21T20:29:55.084Z,6.40
2023-02-21T20:32:22.103Z,6.42
2023-02-21T20:34:50.963Z,6.40
2023-02-21T20:37:19.222Z,6.40
2023-02-21T20:39:49.861Z,6.30
2023-02-21T20:42:17.579Z,6.28
2023-02-21T20:44:44.553Z,6.30
2023-02-21T20:47:11.832Z,6.30
2023-02-21T20:49:42.132Z,6.30
2023-02-21T20:52:08.574Z,6.32
2023-02-21T20:54:35.117Z,6.40
2023-02-21T20:57:01.539Z,6.30
2023-02-21T20:59:34.285Z,6.30
2023-02-21T21:02:02.376Z,6.30
2023-02-21T21:04:35.670Z,6.30
2023-02-21T21:07:24.413Z,6.30
2023-02-21T21:09:51.108Z,6.22
2023-02-21T21:12:22.104Z,6.22
2023-02-21T21:14:55.437Z,6.20
2023-02-21T21:17:21.954Z,6.20
2023-02-21T21:19:50.076Z,6.22
2023-02-21T21:22:21.955Z,6.20
2023-02-21T21:24:51.634Z,6.20
2023-02-21T21:27:19.436Z,6.20
2023-02-21T21:29:46.195Z,6.20
2023-02-21T21:32:17.420Z,6.10
2023-02-21T21:34:47.150Z,6.00
2023-02-21T21:37:15.904Z,5.90
2023-02-21T21:39:49.290Z,5.90
2023-02-21T21:42:18.509Z,5.90
2023-02-21T21:44:53.714Z,5.90
2023-02-21T21:47:23.093Z,5.80
2023-02-21T21:49:50.105Z,5.70
2023-02-21T21:52:30.590Z,5.64
2023-02-21T21:54:58.276Z,5.60
2023-02-21T21:57:27.530Z,5.60
2023-02-21T21:59:55.253Z,5.50
2023-02-21T22:02:21.867Z,5.50
2023-02-21T22:04:48.385Z,5.50
2023-02-21T22:07:15.288Z,5.42
2023-02-21T22:09:42.265Z,5.40
2023-02-21T22:12:08.958Z,5.30
2023-02-21T22:14:35.704Z,5.30
2023-02-21T22:17:02.601Z,5.30
2023-02-21T22:19:29.162Z,5.22
2023-02-21T22:21:56.927Z,5.20
2023-02-21T22:24:25.163Z,5.20
2023-02-21T22:26:54.291Z,5.16
2023-02-21T22:29:22.347Z,5.08
2023-02-21T22:31:51.853Z,5.00
2023-02-21T22:34:25.229Z,5.00
2023-02-21T22:36:57.447Z,4.92
2023-02-21T22:39:26.197Z,4.90
2023-02-21T22:41:53.412Z,4.90
2023-02-21T22:44:24.624Z,4.82
2023-02-21T22:46:58.269Z,4.80
2023-02-21T22:49:27.010Z,4.70
2023-02-21T22:51:53.993Z,4.70
2023-02-21T22:54:21.032Z,4.60
2023-02-21T22:56:54.779Z,4.50
2023-02-21T22:59:26.138Z,4.50
2023-02-21T23:01:53.220Z,4.60
2023-02-21T23:04:26.337Z,4.60
2023-02-21T23:06:55.805Z,4.70
2023-02-21T23:09:22.458Z,4.70
2023-02-21T23:11:53.307Z,4.70
2023-02-21T23:14:23.242Z,4.70
2023-02-21T23:16:54.835Z,4.70
2023-02-21T23:19:23.208Z,4.60
2023-02-21T23:21:52.873Z,4.50
2023-02-21T23:24:22.506Z,4.60
2023-02-21T23:26:50.653Z,4.60
2023-02-21T23:29:24.096Z,4.60
2023-02-21T23:31:54.170Z,4.50
2023-02-21T23:34:20.788Z,4.50
2023-02-21T23:36:49.208Z,4.50
2023-02-21T23:39:16.080Z,4.42
2023-02-21T23:41:48.474Z,4.40
2023-02-21T23:44:15.827Z,4.40
2023-02-21T23:46:44.550Z,4.30
2023-02-21T23:49:15.782Z,4.20
2023-02-21T23:51:44.201Z,4.20
2023-02-21T23:54:13.502Z,4.10
2023-02-21T23:56:40.225Z,4.10
2023-02-21T23:59:07.931Z,4.10
